createdAt,value
2017-10-20T00:02:10.062Z,32.17
2017-10-20T00:04:44.632Z,31.83
2017-10-20T00:07:19.147Z,34.10
2017-10-20T00:09:53.766Z,33.67
2017-10-20T00:12:28.378Z,31.40
2017-10-20T00:17:43.758Z,31.10
2017-10-20T00:20:18.348Z,31.87
2017-10-20T00:22:52.897Z,32.73
2017-10-20T00:25:27.358Z,31.80
2017-10-20T00:28:01.935Z,30.30
2017-10-20T00:30:36.542Z,32.60
2017-10-20T00:33:11.079Z,33.30
2017-10-20T00:35:45.755Z,33.23
2017-10-20T00:38:21.177Z,30.67
2017-10-20T00:40:55.754Z,31.77
2017-10-20T00:43:30.257Z,30.97
2017-10-20T00:46:04.822Z,30.63
2017-10-20T00:48:39.330Z,32.67
2017-10-20T00:51:13.961Z,31.97
2017-10-20T00:53:48.614Z,29.37
2017-10-20T00:56:23.142Z,32.23
2017-10-20T00:58:57.106Z,33.27
2017-10-20T01:01:31.782Z,33.50
2017-10-20T01:04:06.344Z,31.60
2017-10-20T01:06:41.583Z,33.13
2017-10-20T01:09:16.778Z,31.43
2017-10-20T01:11:51.290Z,31.03
2017-10-20T01:14:25.814Z,27.87
2017-10-20T01:17:00.386Z,30.63
2017-10-20T01:19:34.687Z,30.20
2017-10-20T01:22:09.130Z,31.90
2017-10-20T01:24:42.842Z,31.67
2017-10-20T01:27:16.595Z,30.00
2017-10-20T01:29:51.104Z,29.17
2017-10-20T01:32:24.922Z,28.80
2017-10-20T01:34:58.757Z,29.83
2017-10-20T01:37:32.890Z,29.10
2017-10-20T01:40:10.598Z,27.27
2017-10-20T01:42:44.877Z,29.40
2017-10-20T01:45:19.316Z,31.20
2017-10-20T01:47:53.590Z,30.20
2017-10-20T01:50:29.047Z,29.57
2017-10-20T01:53:02.833Z,29.37
2017-10-20T01:55:37.407Z,29.70
2017-10-20T01:58:12.074Z,27.97
2017-10-20T02:00:46.665Z,28.20
2017-10-20T02:03:20.754Z,27.03
2017-10-20T02:05:55.341Z,29.50
2017-10-20T02:08:29.948Z,28.83
2017-10-20T02:11:04.430Z,29.13
2017-10-20T02:13:38.966Z,29.23
2017-10-20T02:16:13.533Z,29.27
2017-10-20T02:18:48.023Z,28.17
2017-10-20T02:21:22.649Z,28.83
2017-10-20T02:23:57.961Z,28.00
2017-10-20T02:26:32.547Z,30.00
2017-10-20T02:29:07.265Z,27.33
2017-10-20T02:31:41.802Z,25.60
2017-10-20T02:34:16.479Z,26.87
2017-10-20T02:36:51.045Z,27.80
2017-10-20T02:39:25.717Z,30.10
2017-10-20T02:42:00.246Z,28.83
2017-10-20T02:44:34.716Z,28.17
2017-10-20T02:47:09.270Z,28.90
2017-10-20T02:49:43.969Z,30.13
2017-10-20T02:52:18.278Z,28.80
2017-10-20T02:54:52.806Z,29.60
2017-10-20T02:57:27.306Z,34.37
2017-10-20T03:00:01.957Z,32.13
2017-10-20T03:02:36.494Z,34.80
2017-10-20T03:05:11.063Z,39.20
2017-10-20T03:07:45.786Z,37.73
2017-10-20T03:10:20.384Z,38.97
2017-10-20T03:12:55.761Z,48.10
2017-10-20T03:15:30.208Z,49.80
2017-10-20T03:18:04.765Z,50.77
2017-10-20T03:20:39.337Z,48.93
2017-10-20T03:23:14.788Z,52.60
2017-10-20T03:25:49.214Z,52.53
2017-10-20T03:28:24.440Z,54.13
2017-10-20T03:30:59.018Z,54.33
2017-10-20T03:33:33.730Z,52.13
2017-10-20T03:36:08.494Z,50.67
2017-10-20T03:38:43.153Z,51.30
2017-10-20T03:41:17.754Z,49.20
2017-10-20T03:43:52.462Z,50.57
2017-10-20T03:46:27.015Z,49.37
2017-10-20T03:49:01.502Z,47.77
2017-10-20T03:51:35.853Z,53.17
2017-10-20T03:54:10.624Z,54.00
2017-10-20T03:56:45.143Z,50.43
2017-10-20T03:59:19.629Z,53.90
2017-10-20T04:01:54.344Z,53.07
2017-10-20T04:04:28.462Z,53.43
2017-10-20T04:07:03.077Z,51.83
2017-10-20T04:09:37.637Z,50.70
2017-10-20T04:12:11.653Z,51.60
2017-10-20T04:14:46.152Z,49.80
2017-10-20T04:17:20.578Z,54.43
2017-10-20T04:19:55.234Z,51.57
2017-10-20T04:22:29.767Z,54.13
2017-10-20T04:25:06.107Z,49.83
2017-10-20T04:27:40.541Z,54.97
2017-10-20T04:30:15.110Z,53.10
2017-10-20T04:32:49.694Z,50.93
2017-10-20T04:35:24.276Z,51.30
2017-10-20T04:37:59.066Z,48.80
2017-10-20T04:40:33.615Z,51.70
2017-10-20T04:43:08.310Z,47.37
2017-10-20T04:45:42.814Z,46.67
2017-10-20T04:48:17.471Z,47.70
2017-10-20T04:50:52.014Z,45.30
2017-10-20T04:53:26.609Z,45.50
2017-10-20T04:56:01.180Z,47.43
2017-10-20T04:58:35.805Z,45.73
2017-10-20T05:01:10.409Z,44.07
2017-10-20T05:03:44.929Z,41.77
2017-10-20T05:06:19.517Z,39.90
2017-10-20T05:08:54.186Z,45.47
2017-10-20T05:11:28.758Z,44.93
2017-10-20T05:14:02.891Z,44.17
2017-10-20T05:16:37.492Z,46.00
2017-10-20T05:19:12.141Z,46.63
2017-10-20T05:21:47.485Z,47.20
2017-10-20T05:24:21.929Z,45.07
2017-10-20T05:26:56.590Z,51.60
2017-10-20T05:29:30.856Z,48.27
2017-10-20T05:32:05.488Z,46.93
2017-10-20T05:34:40.273Z,48.00
2017-10-20T05:37:14.944Z,45.07
2017-10-20T05:39:49.620Z,49.87
2017-10-20T05:42:24.207Z,44.90
2017-10-20T05:44:58.706Z,45.83
2017-10-20T05:47:33.275Z,47.90
2017-10-20T05:50:08.247Z,47.80
2017-10-20T05:52:42.774Z,46.67
2017-10-20T05:55:17.332Z,48.50
2017-10-20T05:57:53.965Z,46.30
2017-10-20T06:00:28.263Z,48.33
2017-10-20T06:03:03.191Z,45.93
2017-10-20T06:05:37.741Z,44.07
2017-10-20T06:08:12.399Z,47.13
2017-10-20T06:10:47.726Z,46.87
2017-10-20T06:13:22.403Z,45.23
2017-10-20T06:15:56.877Z,46.60
2017-10-20T06:18:32.343Z,46.60
2017-10-20T06:21:06.803Z,45.90
2017-10-20T06:23:41.410Z,46.80
2017-10-20T06:26:15.998Z,50.80
2017-10-20T06:28:50.484Z,48.93
2017-10-20T06:31:26.082Z,51.07
2017-10-20T06:34:00.555Z,48.00
2017-10-20T06:36:35.150Z,45.57
2017-10-20T06:39:09.709Z,46.20
2017-10-20T06:41:44.301Z,48.53
2017-10-20T06:44:18.749Z,45.80
2017-10-20T06:46:53.319Z,44.97
2017-10-20T06:49:27.965Z,46.73
2017-10-20T06:52:02.611Z,48.30
2017-10-20T06:54:37.199Z,44.77
2017-10-20T06:57:11.474Z,43.00
2017-10-20T06:59:46.206Z,44.77
2017-10-20T07:02:20.774Z,45.47
2017-10-20T07:04:55.242Z,46.37
2017-10-20T07:07:29.810Z,45.97
2017-10-20T07:10:13.087Z,45.20
2017-10-20T07:12:47.516Z,43.50
2017-10-20T07:15:21.771Z,53.67
2017-10-20T07:17:56.210Z,54.67
2017-10-20T07:20:46.255Z,57.60
2017-10-20T07:23:20.754Z,56.47
2017-10-20T07:25:55.234Z,57.00
2017-10-20T07:28:29.879Z,52.33
2017-10-20T07:31:03.722Z,54.80
2017-10-20T07:33:38.122Z,46.57
2017-10-20T07:36:12.713Z,44.57
2017-10-20T07:38:47.154Z,48.17
2017-10-20T07:41:21.857Z,44.70
2017-10-20T07:43:56.105Z,41.93
2017-10-20T07:46:30.574Z,45.67
2017-10-20T07:49:04.488Z,46.43
2017-10-20T07:51:38.982Z,46.70
2017-10-20T07:54:13.475Z,46.00
2017-10-20T07:56:48.082Z,41.17
2017-10-20T07:59:22.734Z,44.20
2017-10-20T08:01:57.303Z,43.00
2017-10-20T08:04:31.551Z,39.93
2017-10-20T08:07:06.770Z,36.50
2017-10-20T08:09:41.371Z,33.13
2017-10-20T08:12:15.945Z,33.70
2017-10-20T08:14:50.594Z,35.23
2017-10-20T08:17:25.185Z,39.33
2017-10-20T08:19:59.782Z,40.67
2017-10-20T08:22:34.353Z,38.20
2017-10-20T08:25:11.766Z,37.80
2017-10-20T08:27:46.374Z,38.40
2017-10-20T08:30:20.894Z,38.00
2017-10-20T08:32:55.414Z,39.07
2017-10-20T08:35:29.945Z,33.37
2017-10-20T08:38:04.550Z,39.30
2017-10-20T08:40:39.194Z,38.80
2017-10-20T08:43:13.803Z,52.73
2017-10-20T08:45:47.698Z,38.97
2017-10-20T08:48:22.130Z,37.50
2017-10-20T08:50:56.458Z,39.77
2017-10-20T08:53:31.091Z,38.37
2017-10-20T08:56:05.702Z,42.20
2017-10-20T08:58:40.306Z,40.10
2017-10-20T09:01:14.870Z,41.67
2017-10-20T09:03:49.393Z,42.00
2017-10-20T09:06:24.045Z,38.07
2017-10-20T09:08:58.628Z,41.70
2017-10-20T09:11:33.191Z,42.70
2017-10-20T09:14:07.015Z,37.40
2017-10-20T09:16:41.550Z,41.70
2017-10-20T09:19:16.146Z,39.60
2017-10-20T09:21:50.766Z,39.30
2017-10-20T09:24:25.998Z,38.60
2017-10-20T09:27:00.750Z,38.30
2017-10-20T09:29:35.393Z,42.80
2017-10-20T09:32:09.934Z,41.90
2017-10-20T09:34:44.568Z,39.17
2017-10-20T09:37:19.050Z,41.70
2017-10-20T09:39:53.622Z,43.70
2017-10-20T09:42:28.214Z,43.80
2017-10-20T09:45:03.161Z,40.00
2017-10-20T09:47:44.406Z,43.83
2017-10-20T09:50:19.138Z,40.47
2017-10-20T09:52:54.025Z,39.57
2017-10-20T09:55:28.640Z,37.23
2017-10-20T09:58:03.322Z,37.53
2017-10-20T10:00:37.846Z,39.00
2017-10-20T10:03:12.539Z,39.60
2017-10-20T10:05:47.121Z,38.23
2017-10-20T10:08:21.582Z,35.60
2017-10-20T10:10:56.226Z,38.73
2017-10-20T10:13:30.612Z,33.23
2017-10-20T10:16:05.076Z,33.53
2017-10-20T10:18:39.779Z,38.03
2017-10-20T10:21:14.078Z,37.17
2017-10-20T10:23:48.775Z,38.17
2017-10-20T10:26:23.326Z,35.73
2017-10-20T10:28:57.743Z,38.00
2017-10-20T10:31:32.361Z,36.13
2017-10-20T10:34:06.977Z,36.00
2017-10-20T10:36:41.408Z,34.30
2017-10-20T10:39:16.095Z,31.90
2017-10-20T10:41:50.559Z,30.43
2017-10-20T10:44:25.223Z,34.20
2017-10-20T10:46:59.735Z,36.17
2017-10-20T10:49:34.399Z,37.70
2017-10-20T10:52:08.873Z,33.40
2017-10-20T10:54:43.353Z,31.67
2017-10-20T10:57:17.560Z,34.63
2017-10-20T10:59:51.826Z,33.97
2017-10-20T11:02:26.226Z,33.20
2017-10-20T11:05:08.730Z,36.90
2017-10-20T11:07:54.326Z,34.07
2017-10-20T11:13:20.454Z,35.60
2017-10-20T11:15:54.873Z,36.53
2017-10-20T11:18:29.402Z,37.83
2017-10-20T11:21:04.016Z,33.60
2017-10-20T11:23:38.734Z,30.37
2017-10-20T11:26:13.305Z,36.50
2017-10-20T11:28:47.899Z,33.63
2017-10-20T11:31:22.530Z,32.47
2017-10-20T11:33:57.838Z,32.00
2017-10-20T11:36:32.608Z,41.43
2017-10-20T11:39:07.237Z,44.93
2017-10-20T11:41:41.763Z,43.00
2017-10-20T11:44:15.931Z,45.70
2017-10-20T11:46:50.500Z,43.77
2017-10-20T11:49:24.938Z,48.67
2017-10-20T11:51:59.457Z,43.30
2017-10-20T11:54:34.045Z,43.00
2017-10-20T11:57:07.986Z,42.70
2017-10-20T11:59:42.612Z,49.03
2017-10-20T12:02:17.885Z,49.40
2017-10-20T12:04:52.426Z,44.30
2017-10-20T12:07:27.126Z,43.40
2017-10-20T12:10:01.801Z,44.83
2017-10-20T12:12:36.320Z,44.27
2017-10-20T12:15:14.433Z,46.30
2017-10-20T12:17:49.074Z,50.77
2017-10-20T12:20:23.715Z,49.17
2017-10-20T12:22:58.190Z,42.90
2017-10-20T12:25:33.519Z,46.53
2017-10-20T12:28:08.142Z,50.83
2017-10-20T12:30:42.679Z,52.63
2017-10-20T12:33:17.422Z,44.30
2017-10-20T12:35:51.939Z,46.50
2017-10-20T12:38:26.510Z,41.67
2017-10-20T12:41:01.127Z,47.03
2017-10-20T12:43:35.741Z,41.97
2017-10-20T12:46:10.338Z,42.77
2017-10-20T12:48:44.895Z,45.43
2017-10-20T12:51:20.268Z,44.17
2017-10-20T12:53:54.829Z,46.60
2017-10-20T12:56:29.453Z,42.00
2017-10-20T12:59:03.990Z,38.13
2017-10-20T13:01:38.769Z,43.13
2017-10-20T13:04:13.361Z,40.30
2017-10-20T13:06:47.786Z,43.60
2017-10-20T13:09:22.218Z,40.70
2017-10-20T13:11:56.822Z,38.10
2017-10-20T13:14:32.206Z,39.20
2017-10-20T13:17:06.666Z,35.70
2017-10-20T13:19:41.162Z,40.20
2017-10-20T13:22:15.742Z,40.60
2017-10-20T13:24:50.366Z,38.70
2017-10-20T13:27:24.893Z,36.80
2017-10-20T13:29:59.397Z,36.80
2017-10-20T13:32:34.015Z,40.10
2017-10-20T13:35:15.283Z,39.37
2017-10-20T13:37:49.959Z,36.63
2017-10-20T13:40:24.451Z,36.47
2017-10-20T13:42:59.104Z,41.00
2017-10-20T13:45:33.667Z,40.83
2017-10-20T13:48:08.264Z,38.17
2017-10-20T13:50:42.766Z,37.00
2017-10-20T13:53:17.461Z,36.70
2017-10-20T13:55:52.102Z,35.37
2017-10-20T13:58:26.825Z,40.70
2017-10-20T14:01:01.450Z,37.30
2017-10-20T14:03:35.712Z,36.40
2017-10-20T14:06:10.847Z,39.23
2017-10-20T14:08:45.450Z,38.53
2017-10-20T14:11:20.023Z,40.97
2017-10-20T14:13:54.716Z,44.73
2017-10-20T14:16:29.226Z,44.40
2017-10-20T14:19:03.781Z,37.30
2017-10-20T14:21:39.273Z,39.03
2017-10-20T14:24:13.878Z,35.73
2017-10-20T14:26:48.374Z,37.30
2017-10-20T14:29:22.978Z,39.30
2017-10-20T14:31:57.358Z,42.77
2017-10-20T14:34:31.862Z,41.07
2017-10-20T14:37:06.406Z,38.97
2017-10-20T14:39:41.051Z,42.10
2017-10-20T14:42:15.818Z,40.27
2017-10-20T14:44:50.418Z,39.23
2017-10-20T14:47:25.016Z,41.60
2017-10-20T14:49:59.783Z,46.67
2017-10-20T14:52:34.429Z,40.50
2017-10-20T14:55:15.696Z,39.10
2017-10-20T14:57:50.594Z,40.23
2017-10-20T15:00:25.242Z,47.97
2017-10-20T15:02:59.818Z,44.07
2017-10-20T15:05:34.366Z,40.47
2017-10-20T15:08:09.004Z,43.00
2017-10-20T15:10:43.645Z,40.90
2017-10-20T15:13:19.048Z,49.20
2017-10-20T15:15:54.502Z,52.00
2017-10-20T15:18:29.118Z,53.67
2017-10-20T15:21:03.626Z,53.93
2017-10-20T15:23:38.125Z,55.17
2017-10-20T15:26:12.755Z,53.90
2017-10-20T15:28:47.437Z,58.17
2017-10-20T15:31:22.069Z,57.83
2017-10-20T15:33:56.751Z,56.57
2017-10-20T15:36:31.230Z,57.83
2017-10-20T15:39:06.670Z,52.93
2017-10-20T15:41:41.184Z,51.97
2017-10-20T15:44:16.395Z,54.53
2017-10-20T15:46:51.053Z,57.40
2017-10-20T15:49:25.658Z,56.13
2017-10-20T15:52:00.183Z,63.07
2017-10-20T15:54:34.790Z,59.63
2017-10-20T15:57:09.493Z,62.93
2017-10-20T15:59:43.976Z,64.97
2017-10-20T16:02:18.790Z,61.87
2017-10-20T16:04:53.215Z,62.40
2017-10-20T16:07:27.781Z,60.97
2017-10-20T16:10:02.738Z,66.30
2017-10-20T16:12:43.423Z,67.70
2017-10-20T16:15:17.942Z,67.00
2017-10-20T16:17:52.397Z,65.90
2017-10-20T16:20:26.926Z,60.07
2017-10-20T16:23:01.651Z,62.17
2017-10-20T16:25:36.218Z,58.93
2017-10-20T16:28:10.897Z,62.03
2017-10-20T16:30:45.470Z,69.67
2017-10-20T16:33:19.988Z,65.80
2017-10-20T16:35:54.534Z,63.80
2017-10-20T16:38:29.119Z,70.40
2017-10-20T16:41:03.598Z,68.47
2017-10-20T16:43:38.169Z,70.20
2017-10-20T16:46:12.757Z,68.00
2017-10-20T16:48:47.346Z,66.10
2017-10-20T16:51:21.882Z,65.90
2017-10-20T16:53:56.446Z,70.87
2017-10-20T16:56:30.973Z,66.70
2017-10-20T16:59:05.611Z,68.80
2017-10-20T17:01:40.110Z,72.37
2017-10-20T17:04:15.530Z,77.70
2017-10-20T17:06:49.990Z,75.23
2017-10-20T17:09:25.197Z,75.83
2017-10-20T17:11:59.698Z,71.03
2017-10-20T17:14:34.322Z,69.90
2017-10-20T17:17:08.915Z,69.53
2017-10-20T17:19:46.251Z,65.87
2017-10-20T17:22:20.677Z,65.20
2017-10-20T17:24:55.230Z,63.03
2017-10-20T17:27:29.751Z,73.17
2017-10-20T17:32:45.166Z,70.50
2017-10-20T17:35:19.700Z,66.40
2017-10-20T17:37:54.358Z,72.20
2017-10-20T17:40:29.619Z,68.50
2017-10-20T17:43:04.354Z,65.27
2017-10-20T17:45:38.890Z,67.70
2017-10-20T17:48:13.422Z,71.17
2017-10-20T17:50:48.031Z,67.80
2017-10-20T17:53:22.626Z,74.03
2017-10-20T17:55:57.239Z,64.13
2017-10-20T17:58:32.058Z,66.10
2017-10-20T18:01:06.692Z,66.97
2017-10-20T18:03:42.175Z,62.47
2017-10-20T18:06:16.726Z,66.00
2017-10-20T18:08:51.226Z,62.97
2017-10-20T18:11:25.696Z,58.03
2017-10-20T18:14:00.184Z,57.00
2017-10-20T18:16:34.728Z,59.47
2017-10-20T18:19:09.179Z,53.10
2017-10-20T18:21:43.846Z,57.70
2017-10-20T18:24:18.350Z,57.13
2017-10-20T18:26:52.894Z,55.20
2017-10-20T18:29:27.480Z,58.60
2017-10-20T18:32:02.158Z,56.60
2017-10-20T18:34:36.843Z,53.70
2017-10-20T18:37:11.447Z,57.87
2017-10-20T18:39:45.919Z,61.40
2017-10-20T18:42:20.415Z,59.43
2017-10-20T18:44:55.190Z,64.43
2017-10-20T18:47:30.614Z,58.93
2017-10-20T18:50:14.414Z,56.10
2017-10-20T18:52:48.914Z,62.63
2017-10-20T18:55:23.478Z,59.53
2017-10-20T18:57:57.953Z,61.33
2017-10-20T19:00:32.586Z,57.37
2017-10-20T19:03:07.254Z,60.90
2017-10-20T19:05:41.463Z,65.33
2017-10-20T19:08:16.047Z,63.13
2017-10-20T19:10:50.545Z,58.77
2017-10-20T19:13:25.166Z,56.90
2017-10-20T19:15:59.722Z,67.37
2017-10-20T19:18:34.676Z,62.73
2017-10-20T19:21:09.422Z,59.63
2017-10-20T19:23:44.795Z,64.00
2017-10-20T19:26:20.210Z,66.93
2017-10-20T19:28:54.819Z,59.90
2017-10-20T19:31:29.268Z,59.03
2017-10-20T19:34:03.772Z,55.00
2017-10-20T19:36:38.333Z,59.60
2017-10-20T19:39:12.986Z,56.13
2017-10-20T19:41:47.577Z,56.40
2017-10-20T19:44:22.239Z,56.50
2017-10-20T19:46:56.854Z,57.17
2017-10-20T19:49:31.444Z,57.40
2017-10-20T19:52:06.054Z,53.63
2017-10-20T19:54:40.566Z,59.63
2017-10-20T19:57:15.165Z,57.90
2017-10-20T19:59:49.818Z,52.87
2017-10-20T20:02:24.558Z,57.03
2017-10-20T20:04:59.141Z,54.07
2017-10-20T20:07:33.820Z,60.17
2017-10-20T20:10:16.168Z,60.00
2017-10-20T20:12:50.742Z,55.93
2017-10-20T20:15:25.426Z,59.40
2017-10-20T20:18:00.100Z,52.60
2017-10-20T20:20:34.515Z,54.80
2017-10-20T20:23:09.146Z,56.13
2017-10-20T20:25:43.526Z,57.33
2017-10-20T20:28:18.403Z,58.63
2017-10-20T20:30:52.818Z,57.30
2017-10-20T20:33:27.998Z,58.00
2017-10-20T20:36:03.148Z,55.87
2017-10-20T20:38:37.421Z,59.80
2017-10-20T20:41:12.010Z,63.40
2017-10-20T20:43:46.530Z,55.83
2017-10-20T20:46:21.138Z,55.83
2017-10-20T20:48:55.610Z,58.73
2017-10-20T20:51:30.218Z,53.37
2017-10-20T20:54:04.894Z,58.30
2017-10-20T20:56:39.474Z,63.47
2017-10-20T20:59:14.183Z,56.50
2017-10-20T21:01:48.997Z,54.50
2017-10-20T21:04:23.992Z,54.97
2017-10-20T21:06:58.513Z,50.83
2017-10-20T21:09:33.249Z,52.03
2017-10-20T21:12:07.834Z,54.47
2017-10-20T21:14:42.483Z,54.77
2017-10-20T21:17:17.246Z,56.00
2017-10-20T21:19:51.907Z,52.10
2017-10-20T21:22:26.362Z,55.60
2017-10-20T21:25:01.024Z,53.33
2017-10-20T21:27:36.081Z,51.80
2017-10-20T21:30:12.665Z,53.60
2017-10-20T21:32:47.544Z,52.20
2017-10-20T21:35:22.193Z,53.00
2017-10-20T21:37:57.158Z,52.33
2017-10-20T21:40:31.827Z,53.90
2017-10-20T21:43:06.446Z,52.10
2017-10-20T21:45:41.037Z,56.00
2017-10-20T21:48:15.526Z,54.03
2017-10-20T21:50:50.058Z,54.10
2017-10-20T21:53:24.574Z,54.33
2017-10-20T21:55:59.074Z,57.93
2017-10-20T21:58:33.743Z,59.30
2017-10-20T22:01:07.655Z,53.87
2017-10-20T22:03:42.246Z,56.03
2017-10-20T22:06:16.909Z,52.20
2017-10-20T22:08:51.487Z,52.27
2017-10-20T22:11:25.952Z,52.20
2017-10-20T22:14:00.372Z,53.87
2017-10-20T22:16:35.370Z,53.20
2017-10-20T22:19:09.973Z,49.37
2017-10-20T22:21:44.542Z,51.57
2017-10-20T22:24:19.182Z,55.03
2017-10-20T22:26:53.855Z,52.80
2017-10-20T22:29:28.559Z,55.90
2017-10-20T22:32:03.301Z,53.50
2017-10-20T22:34:37.994Z,52.30
2017-10-20T22:37:12.637Z,55.03
2017-10-20T22:39:47.149Z,51.27
2017-10-20T22:42:21.793Z,50.07
2017-10-20T22:44:56.371Z,51.57
2017-10-20T22:47:30.985Z,49.87
2017-10-20T22:50:15.003Z,48.77
2017-10-20T22:52:49.582Z,51.27
2017-10-20T22:55:24.169Z,46.43
2017-10-20T22:57:58.860Z,49.47
2017-10-20T23:00:33.482Z,49.23
2017-10-20T23:03:07.950Z,53.93
2017-10-20T23:05:42.468Z,50.43
2017-10-20T23:08:16.934Z,50.47
2017-10-20T23:10:51.570Z,50.27
2017-10-20T23:13:26.033Z,50.53
2017-10-20T23:16:00.683Z,52.77
2017-10-20T23:18:35.441Z,50.27
2017-10-20T23:21:09.964Z,53.00
2017-10-20T23:23:44.531Z,52.00
2017-10-20T23:26:19.102Z,47.10
2017-10-20T23:28:53.717Z,46.50
2017-10-20T23:31:28.266Z,48.30
2017-10-20T23:34:02.883Z,43.90
2017-10-20T23:36:37.434Z,46.60
2017-10-20T23:39:12.074Z,44.87
2017-10-20T23:41:46.585Z,42.53
2017-10-20T23:44:21.629Z,42.40
2017-10-20T23:46:56.170Z,41.10
2017-10-20T23:49:30.725Z,45.87
2017-10-20T23:52:05.417Z,43.97
2017-10-20T23:54:39.955Z,42.07
2017-10-20T23:57:14.590Z,44.00
2017-10-20T23:59:49.146Z,39.40
